Time;durP1;ratioP1;P1;durP2;ratioP2;P2;SDS_P1;SDS_P2;PMS_P1;PMS_P2;Temp;Humidity;BMP_temperature;BMP_pressure;BME280_temperature;BME280_humidity;BME280_pressure;Samples;Min_cycle;Max_cycle;Signal;HPM_P1;HPM_P2
2023/01/18 14:04:58;;;;;;;2.47;2.28;;;;;;;;;;10300587;28;20588;-78
2023/01/18 14:10:02;;;;;;;3.40;2.35;;;;;;;;;;10253561;28;20705;-73
2023/01/18 14:15:03;;;;;;;2.65;2.20;;;;;;;;;;10250242;28;20696;-78
2023/01/18 14:20:24;;;;;;;3.42;2.85;;;;;;;;;;10253778;28;20212;-77
2023/01/18 14:25:28;;;;;;;2.63;2.42;;;;;;;;;;10265396;28;20249;-76
2023/01/18 14:30:30;;;;;;;6.50;3.13;;;;;;;;;;10241213;28;20556;-77
2023/01/18 14:35:31;;;;;;;3.58;2.60;;;;;;;;;;10253349;28;20237;-76
2023/01/18 14:40:32;;;;;;;4.13;3.35;;;;;;;;;;10253380;28;20221;-78
2023/01/18 14:45:35;;;;;;;4.43;2.83;;;;;;;;;;10233618;28;20237;-77
2023/01/18 14:50:38;;;;;;;5.10;3.15;;;;;;;;;;10251683;28;20731;-76
2023/01/18 14:55:39;;;;;;;3.13;2.70;;;;;;;;;;10251401;28;20563;-78
2023/01/18 15:00:51;;;;;;;6.65;4.43;;;;;;;;;;10249993;28;20267;-76
2023/01/18 15:05:57;;;;;;;21.35;10.23;;;;;;;;;;10252357;28;20230;-76
2023/01/18 15:11:00;;;;;;;11.27;5.13;;;;;;;;;;10249877;28;20360;-76
2023/01/18 15:16:01;;;;;;;9.73;5.30;;;;;;;;;;10265602;28;20249;-77
2023/01/18 15:21:05;;;;;;;8.75;5.07;;;;;;;;;;10266709;28;20711;-76
2023/01/18 15:26:06;;;;;;;6.32;4.57;;;;;;;;;;10251091;28;20218;-76
2023/01/18 15:31:12;;;;;;;10.20;5.70;;;;;;;;;;10245146;28;20382;-76
2023/01/18 15:36:14;;;;;;;5.20;4.38;;;;;;;;;;10253635;28;20233;-76
2023/01/18 15:41:15;;;;;;;12.82;5.45;;;;;;;;;;10267257;28;20221;-74
2023/01/18 15:46:16;;;;;;;11.65;6.05;;;;;;;;;;10249256;28;20568;-76
2023/01/18 15:51:21;;;;;;;5.57;4.75;;;;;;;;;;10250817;28;20305;-76
2023/01/18 15:56:24;;;;;;;7.05;4.20;;;;;;;;;;10249059;28;20229;-78
2023/01/18 16:01:28;;;;;;;6.15;4.38;;;;;;;;;;10250955;28;20719;-72
2023/01/18 16:06:39;;;;;;;5.97;4.75;;;;;;;;;;10236917;28;20280;-75
2023/01/18 16:11:40;;;;;;;6.90;4.07;;;;;;;;;;10249769;28;20244;-74
2023/01/18 16:16:41;;;;;;;9.95;5.55;;;;;;;;;;10248418;28;20221;-73
2023/01/18 16:21:44;;;;;;;8.83;5.50;;;;;;;;;;10266769;28;20605;-72
2023/01/18 16:26:46;;;;;;;5.65;4.03;;;;;;;;;;10249165;28;20226;-74
2023/01/18 16:31:47;;;;;;;7.05;3.85;;;;;;;;;;10245060;28;20214;-74
2023/01/18 16:36:48;;;;;;;9.43;4.18;;;;;;;;;;10250560;28;20577;-73
2023/01/18 16:41:56;;;;;;;4.40;3.58;;;;;;;;;;10248269;28;20221;-75
2023/01/18 16:46:58;;;;;;;7.88;4.15;;;;;;;;;;10264288;28;20336;-72
2023/01/18 16:51:59;;;;;;;5.05;4.18;;;;;;;;;;10264549;28;20359;-75
2023/01/18 16:57:00;;;;;;;6.15;3.50;;;;;;;;;;10237124;28;20217;-74
2023/01/18 17:02:01;;;;;;;6.18;3.92;;;;;;;;;;10249790;28;20213;-73
2023/01/18 17:07:02;;;;;;;7.50;5.15;;;;;;;;;;10259222;28;20221;-75
2023/01/18 17:12:03;;;;;;;4.28;3.83;;;;;;;;;;10252461;28;20210;-73
2023/01/18 17:17:04;;;;;;;5.35;4.82;;;;;;;;;;10272541;28;20801;-73
2023/01/18 17:22:05;;;;;;;5.40;4.28;;;;;;;;;;10259150;28;20213;-73
2023/01/18 17:27:10;;;;;;;11.50;5.53;;;;;;;;;;10254892;28;20257;-73
2023/01/18 17:32:11;;;;;;;13.05;4.70;;;;;;;;;;10243582;28;20210;-74
2023/01/18 17:37:12;;;;;;;8.20;4.85;;;;;;;;;;10251591;28;20222;-75
2023/01/18 17:42:14;;;;;;;5.90;4.57;;;;;;;;;;10244242;28;20301;-74
2023/01/18 17:47:15;;;;;;;5.85;4.43;;;;;;;;;;10253229;28;20232;-74
2023/01/18 17:52:16;;;;;;;6.90;4.93;;;;;;;;;;10252993;28;20244;-75
2023/01/18 17:57:17;;;;;;;8.30;5.20;;;;;;;;;;10254960;28;20226;-75
2023/01/18 18:02:18;;;;;;;6.18;4.35;;;;;;;;;;10246743;28;20258;-74
2023/01/18 18:07:19;;;;;;;8.87;5.40;;;;;;;;;;10256438;28;20319;-74
2023/01/18 18:12:20;;;;;;;6.73;3.77;;;;;;;;;;10261010;28;20916;-76
2023/01/18 18:17:47;;;;;;;6.13;4.65;;;;;;;;;;10271921;28;20220;-76
2023/01/18 18:23:13;;;;;;;7.53;5.03;;;;;;;;;;10244037;28;20206;-76
2023/01/18 18:28:13;;;;;;;9.43;5.10;;;;;;;;;;10255888;28;20253;-76
2023/01/18 18:33:15;;;;;;;8.23;5.47;;;;;;;;;;10278355;28;20205;-78
2023/01/18 18:38:26;;;;;;;13.70;5.93;;;;;;;;;;10223546;28;20221;-76
2023/01/18 18:43:27;;;;;;;9.53;5.83;;;;;;;;;;10243648;28;20228;-75
2023/01/18 18:48:28;;;;;;;11.60;6.57;;;;;;;;;;10237234;28;20224;-77
2023/01/18 18:54:22;;;;;;;8.00;5.97;;;;;;;;;;10324319;27;61279;-76
2023/01/18 18:59:23;;;;;;;14.87;6.93;;;;;;;;;;10413570;28;20202;-75
2023/01/18 19:04:25;;;;;;;11.10;6.07;;;;;;;;;;10452653;28;20209;-77
2023/01/18 19:09:26;;;;;;;9.13;5.43;;;;;;;;;;10454750;28;20233;-76
2023/01/18 19:14:27;;;;;;;14.97;6.57;;;;;;;;;;10437867;28;20225;-73
2023/01/18 19:19:28;;;;;;;14.10;6.40;;;;;;;;;;10455468;28;20259;-75
2023/01/18 19:24:33;;;;;;;13.50;6.77;;;;;;;;;;10454001;28;20219;-75
2023/01/18 19:29:36;;;;;;;6.80;4.17;;;;;;;;;;10455714;28;20203;-74
2023/01/18 19:34:37;;;;;;;9.77;5.20;;;;;;;;;;10436640;28;20333;-77
2023/01/18 19:39:38;;;;;;;5.17;4.50;;;;;;;;;;10436501;28;20206;-75
2023/01/18 19:44:39;;;;;;;8.57;4.90;;;;;;;;;;10449924;28;20242;-75
2023/01/18 19:49:41;;;;;;;7.93;5.10;;;;;;;;;;10452737;28;22208;-76
2023/01/18 19:54:43;;;;;;;12.33;5.60;;;;;;;;;;10450371;28;20213;-76
2023/01/18 19:59:44;;;;;;;10.27;4.80;;;;;;;;;;10452863;28;20253;-74
2023/01/18 20:04:46;;;;;;;8.33;5.30;;;;;;;;;;10417897;28;20215;-75
2023/01/18 20:09:47;;;;;;;9.97;4.10;;;;;;;;;;10417958;28;20225;-75
2023/01/18 20:14:49;;;;;;;8.30;4.80;;;;;;;;;;10427798;28;20818;-76
2023/01/18 20:19:52;;;;;;;11.23;5.57;;;;;;;;;;10425087;28;20219;-76
2023/01/18 20:24:54;;;;;;;7.97;4.83;;;;;;;;;;10433959;28;20769;-76
2023/01/18 20:29:57;;;;;;;8.27;4.63;;;;;;;;;;10427232;28;20661;-78
2023/01/18 20:34:58;;;;;;;7.00;3.47;;;;;;;;;;10425161;28;20218;-76
2023/01/18 20:39:59;;;;;;;8.90;4.23;;;;;;;;;;10417342;28;20301;-76
2023/01/18 20:45:00;;;;;;;4.53;4.10;;;;;;;;;;10426078;28;20244;-76
2023/01/18 20:50:02;;;;;;;4.23;2.93;;;;;;;;;;10419589;28;20229;-76
2023/01/18 20:55:03;;;;;;;12.03;3.93;;;;;;;;;;10422530;28;20606;-75
2023/01/18 21:00:05;;;;;;;3.37;3.03;;;;;;;;;;10424610;28;20278;-76
2023/01/18 21:05:07;;;;;;;6.07;3.17;;;;;;;;;;10424171;28;20608;-77
2023/01/18 21:10:09;;;;;;;6.20;3.93;;;;;;;;;;10423867;28;20297;-76
2023/01/18 21:15:11;;;;;;;10.87;3.30;;;;;;;;;;10405800;28;20213;-75
2023/01/18 21:20:12;;;;;;;4.80;3.67;;;;;;;;;;10425484;28;20273;-74
2023/01/18 21:25:14;;;;;;;3.70;3.20;;;;;;;;;;10427180;28;20256;-76
2023/01/18 21:30:15;;;;;;;4.70;3.57;;;;;;;;;;10421915;28;20245;-75
2023/01/18 21:35:17;;;;;;;5.57;3.37;;;;;;;;;;10410123;28;20364;-75
2023/01/18 21:40:18;;;;;;;5.93;2.83;;;;;;;;;;10422219;28;20392;-74
2023/01/18 21:56:16;;;;;;;7.83;2.70;;;;;;;;;;10353183;28;20238;-75
2023/01/18 22:01:18;;;;;;;3.63;2.87;;;;;;;;;;10424360;28;20226;-75
2023/01/18 22:06:19;;;;;;;4.20;2.97;;;;;;;;;;10419574;28;20214;-75
2023/01/18 22:11:20;;;;;;;3.97;3.57;;;;;;;;;;10415909;28;20931;-74
2023/01/18 22:16:21;;;;;;;7.60;3.00;;;;;;;;;;10425190;28;20214;-74
2023/01/18 22:21:24;;;;;;;6.77;2.97;;;;;;;;;;10425082;28;20214;-74
2023/01/18 22:26:26;;;;;;;5.77;3.20;;;;;;;;;;10416878;28;20211;-75
2023/01/18 22:31:27;;;;;;;8.63;4.27;;;;;;;;;;10416202;28;20936;-75
2023/01/18 22:36:29;;;;;;;7.17;4.03;;;;;;;;;;10400848;28;20218;-74
2023/01/18 22:41:30;;;;;;;9.60;4.07;;;;;;;;;;10420839;28;20260;-76
2023/01/18 22:46:31;;;;;;;6.27;3.80;;;;;;;;;;10423087;28;20221;-75
2023/01/18 22:51:34;;;;;;;6.60;3.47;;;;;;;;;;10425067;28;20227;-76
2023/01/18 22:56:35;;;;;;;4.77;3.23;;;;;;;;;;10422478;28;20222;-75
2023/01/18 23:01:36;;;;;;;5.43;4.03;;;;;;;;;;10407073;28;20349;-75
2023/01/18 23:06:40;;;;;;;4.00;2.97;;;;;;;;;;10413646;28;20226;-73
2023/01/18 23:11:41;;;;;;;5.43;2.73;;;;;;;;;;10401723;28;20217;-75
2023/01/18 23:22:05;;;;;;;4.17;2.83;;;;;;;;;;10418119;28;20211;-75
2023/01/18 23:27:08;;;;;;;3.93;2.57;;;;;;;;;;10418695;28;20233;-74
2023/01/18 23:32:09;;;;;;;3.70;3.10;;;;;;;;;;10425791;28;20222;-75
2023/01/18 23:37:10;;;;;;;8.50;2.47;;;;;;;;;;10419849;28;20246;-73
2023/01/18 23:58:12;;;;;;;2.50;2.30;;;;;;;;;;10409277;28;20957;-75
